createdAt,value
2022-10-06T00:02:17.976Z,15.80
2022-10-06T00:04:44.700Z,15.75
2022-10-06T00:07:11.380Z,15.59
2022-10-06T00:09:38.264Z,15.29
2022-10-06T00:12:05.462Z,15.45
2022-10-06T00:14:32.103Z,15.64
2022-10-06T00:16:58.712Z,15.42
2022-10-06T00:19:25.382Z,15.52
2022-10-06T00:21:52.391Z,15.38
2022-10-06T00:24:19.041Z,15.16
2022-10-06T00:26:47.532Z,15.43
2022-10-06T00:29:14.951Z,15.08
2022-10-06T00:31:42.010Z,15.15
2022-10-06T00:34:08.662Z,15.35
2022-10-06T00:36:35.290Z,15.11
2022-10-06T00:39:01.881Z,15.24
2022-10-06T00:41:28.503Z,15.02
2022-10-06T00:43:59.541Z,15.19
2022-10-06T00:46:34.353Z,14.97
2022-10-06T00:49:04.142Z,14.89
2022-10-06T00:51:31.711Z,15.04
2022-10-06T00:53:58.513Z,15.04
2022-10-06T00:56:25.922Z,14.83
2022-10-06T00:58:52.644Z,14.61
2022-10-06T01:01:19.452Z,14.76
2022-10-06T01:03:49.282Z,14.70
2022-10-06T01:06:15.851Z,14.87
2022-10-06T01:08:42.551Z,14.81
2022-10-06T01:11:15.571Z,14.89
2022-10-06T01:13:45.880Z,14.62
2022-10-06T01:16:25.301Z,14.60
2022-10-06T01:18:53.610Z,14.61
2022-10-06T01:21:38.760Z,14.50
2022-10-06T01:24:05.913Z,14.49
2022-10-06T01:26:34.161Z,13.80
2022-10-06T01:29:00.839Z,14.23
2022-10-06T01:31:27.945Z,14.21
2022-10-06T01:33:54.793Z,13.72
2022-10-06T01:36:21.589Z,13.93
2022-10-06T01:38:48.245Z,13.44
2022-10-06T01:41:14.861Z,14.06
2022-10-06T01:43:41.491Z,13.20
2022-10-06T01:48:37.922Z,14.03
2022-10-06T01:51:04.541Z,13.82
2022-10-06T01:53:31.211Z,13.86
2022-10-06T01:55:58.552Z,13.52
2022-10-06T01:58:25.309Z,13.75
2022-10-06T02:00:52.842Z,13.19
2022-10-06T02:03:19.490Z,13.40
2022-10-06T02:05:46.125Z,13.70
2022-10-06T02:08:12.783Z,13.63
2022-10-06T02:10:39.653Z,13.40
2022-10-06T02:13:06.421Z,13.34
2022-10-06T02:15:33.632Z,13.66
2022-10-06T02:18:00.298Z,13.85
2022-10-06T02:20:27.129Z,13.85
2022-10-06T02:22:53.798Z,13.86
2022-10-06T02:25:20.397Z,13.77
2022-10-06T02:27:47.240Z,13.67
2022-10-06T02:30:16.750Z,13.53
2022-10-06T02:32:44.290Z,13.13
2022-10-06T02:35:12.961Z,13.23
2022-10-06T02:37:41.057Z,12.79
2022-10-06T02:40:08.210Z,13.35
2022-10-06T02:42:38.111Z,13.35
2022-10-06T02:45:05.780Z,12.86
2022-10-06T02:47:32.799Z,13.16
2022-10-06T02:50:02.880Z,12.88
2022-10-06T02:52:36.590Z,13.36
2022-10-06T02:55:04.330Z,12.19
2022-10-06T02:57:31.260Z,12.13
2022-10-06T02:59:57.916Z,12.88
2022-10-06T03:02:24.633Z,12.79
2022-10-06T03:04:51.399Z,12.69
2022-10-06T03:07:18.286Z,12.59
2022-10-06T03:09:44.877Z,12.75
2022-10-06T03:12:11.549Z,12.59
2022-10-06T03:14:38.534Z,12.78
2022-10-06T03:17:05.197Z,12.77
2022-10-06T03:19:31.812Z,12.90
2022-10-06T03:21:58.450Z,12.68
2022-10-06T03:24:25.040Z,12.62
2022-10-06T03:26:51.678Z,12.88
2022-10-06T03:29:18.398Z,13.03
2022-10-06T03:31:45.146Z,13.09
2022-10-06T03:34:13.652Z,13.07
2022-10-06T03:36:40.391Z,12.81
2022-10-06T03:39:07.269Z,12.99
2022-10-06T03:41:35.359Z,12.96
2022-10-06T03:44:02.032Z,13.05
2022-10-06T03:46:30.285Z,13.22
2022-10-06T03:49:00.852Z,13.18
2022-10-06T03:51:29.891Z,13.16
2022-10-06T03:53:57.159Z,13.17
2022-10-06T03:56:23.757Z,13.00
2022-10-06T03:58:54.241Z,13.12
2022-10-06T04:01:31.630Z,13.11
2022-10-06T04:03:58.991Z,13.07
2022-10-06T04:06:26.869Z,13.15
2022-10-06T04:08:54.273Z,13.09
2022-10-06T04:11:21.360Z,13.12
2022-10-06T04:13:48.600Z,13.08
2022-10-06T04:16:15.254Z,13.24
2022-10-06T04:18:42.761Z,12.39
2022-10-06T04:21:09.438Z,12.53
2022-10-06T04:23:36.759Z,11.86
2022-10-06T04:26:10.042Z,11.47
2022-10-06T04:28:38.359Z,11.85
2022-10-06T04:31:06.232Z,10.91
2022-10-06T04:33:34.603Z,10.74
2022-10-06T04:36:02.777Z,10.79
2022-10-06T04:38:30.201Z,11.10
2022-10-06T04:40:57.790Z,11.45
2022-10-06T04:43:25.310Z,11.56
2022-10-06T04:46:13.065Z,11.82
2022-10-06T04:48:45.039Z,12.05
2022-10-06T04:51:13.159Z,11.90
2022-10-06T04:53:40.214Z,11.52
2022-10-06T04:56:24.370Z,11.74
2022-10-06T04:58:52.051Z,11.98
2022-10-06T05:01:20.318Z,11.87
2022-10-06T05:03:47.531Z,12.21
2022-10-06T05:06:15.479Z,11.75
2022-10-06T05:08:42.090Z,11.93
2022-10-06T05:11:15.036Z,11.67
2022-10-06T05:13:43.438Z,11.90
2022-10-06T05:16:12.362Z,12.03
2022-10-06T05:18:39.263Z,12.32
2022-10-06T05:21:07.745Z,12.50
2022-10-06T05:23:36.954Z,12.11
2022-10-06T05:26:04.666Z,11.95
2022-10-06T05:28:32.457Z,12.08
2022-10-06T05:31:01.665Z,12.01
2022-10-06T05:33:30.211Z,12.52
2022-10-06T05:35:57.771Z,13.11
2022-10-06T05:38:24.491Z,13.82
2022-10-06T05:40:51.291Z,14.51
2022-10-06T05:43:18.399Z,15.01
2022-10-06T05:45:55.293Z,15.61
2022-10-06T05:48:22.200Z,16.21
2022-10-06T05:50:49.597Z,16.88
2022-10-06T05:53:17.131Z,17.62
2022-10-06T05:55:43.769Z,18.14
2022-10-06T05:58:11.262Z,18.36
2022-10-06T06:00:38.079Z,18.46
2022-10-06T06:03:08.502Z,18.83
2022-10-06T06:05:35.243Z,19.08
2022-10-06T06:08:01.934Z,19.76
2022-10-06T06:10:28.527Z,20.76
2022-10-06T06:12:55.851Z,21.83
2022-10-06T06:15:41.170Z,22.13
2022-10-06T06:18:08.191Z,22.98
2022-10-06T06:20:34.920Z,23.59
2022-10-06T06:23:01.542Z,24.22
2022-10-06T06:25:28.114Z,25.03
2022-10-06T06:27:55.587Z,24.69
2022-10-06T06:30:23.213Z,24.28
2022-10-06T06:32:51.018Z,24.23
2022-10-06T06:35:17.678Z,25.00
2022-10-06T06:37:52.043Z,25.22
2022-10-06T06:40:19.590Z,25.03
2022-10-06T06:42:48.254Z,24.87
2022-10-06T06:45:19.135Z,25.09
2022-10-06T06:47:49.924Z,25.21
2022-10-06T06:50:18.399Z,25.59
2022-10-06T06:52:45.311Z,25.14
2022-10-06T06:55:11.959Z,24.94
2022-10-06T06:57:38.611Z,24.75
2022-10-06T07:00:08.338Z,25.04
2022-10-06T07:02:35.002Z,25.48
2022-10-06T07:05:01.620Z,25.47
2022-10-06T07:07:28.407Z,25.40
2022-10-06T07:09:55.132Z,25.35
2022-10-06T07:12:21.790Z,25.34
2022-10-06T07:15:07.110Z,25.48
2022-10-06T07:17:52.136Z,25.09
2022-10-06T07:20:37.280Z,25.42
2022-10-06T07:23:22.762Z,25.26
2022-10-06T07:25:49.402Z,25.42
2022-10-06T07:28:17.384Z,25.69
2022-10-06T07:30:45.161Z,25.81
2022-10-06T07:33:11.870Z,26.02
2022-10-06T07:35:39.210Z,25.84
2022-10-06T07:38:08.185Z,24.72
2022-10-06T07:40:35.397Z,25.12
2022-10-06T07:43:02.839Z,25.23
2022-10-06T07:45:39.375Z,24.97
2022-10-06T07:48:07.290Z,24.77
2022-10-06T07:50:34.112Z,24.65
2022-10-06T07:53:07.870Z,24.34
2022-10-06T07:55:35.619Z,24.05
2022-10-06T07:58:02.390Z,24.07
2022-10-06T08:00:29.223Z,23.87
2022-10-06T08:02:55.994Z,23.78
2022-10-06T08:05:22.919Z,23.71
2022-10-06T08:07:50.342Z,23.96
2022-10-06T08:10:18.670Z,23.91
2022-10-06T08:15:18.543Z,24.11
2022-10-06T08:17:45.241Z,24.37
2022-10-06T08:20:13.020Z,25.14
2022-10-06T08:22:40.540Z,25.76
2022-10-06T08:25:09.689Z,26.21
2022-10-06T08:27:37.656Z,25.95
2022-10-06T08:30:07.658Z,25.30
2022-10-06T08:32:37.792Z,25.35
2022-10-06T08:35:04.557Z,25.09
2022-10-06T08:37:31.463Z,25.41
2022-10-06T08:39:58.396Z,25.48
2022-10-06T08:42:29.548Z,25.71
2022-10-06T08:44:59.621Z,26.25
2022-10-06T08:47:28.502Z,26.10
2022-10-06T08:49:56.167Z,26.74
2022-10-06T08:52:38.701Z,27.46
2022-10-06T08:55:19.163Z,27.46
2022-10-06T08:57:57.945Z,25.27
2022-10-06T09:00:24.741Z,26.39
2022-10-06T09:02:51.472Z,27.16
2022-10-06T09:05:25.720Z,27.89
2022-10-06T09:08:01.707Z,28.25
2022-10-06T09:10:31.576Z,28.39
2022-10-06T09:13:03.487Z,28.94
2022-10-06T09:15:34.009Z,29.76
2022-10-06T09:18:13.530Z,29.26
2022-10-06T09:20:44.091Z,29.69
2022-10-06T09:23:15.054Z,30.26
2022-10-06T09:25:41.763Z,28.96
2022-10-06T09:28:11.808Z,29.07
2022-10-06T09:30:38.582Z,28.85
2022-10-06T09:33:06.364Z,29.62
2022-10-06T09:35:33.149Z,29.91
2022-10-06T09:38:09.263Z,30.29
2022-10-06T09:40:42.227Z,30.64
2022-10-06T09:43:35.267Z,30.35
2022-10-06T09:46:21.403Z,30.40
2022-10-06T09:48:48.350Z,30.33
2022-10-06T09:51:16.520Z,30.23
2022-10-06T09:53:44.460Z,29.96
2022-10-06T09:56:14.282Z,30.36
2022-10-06T09:58:52.740Z,30.16
2022-10-06T10:01:23.004Z,30.58
2022-10-06T10:04:15.432Z,30.44
2022-10-06T10:06:39.806Z,31.03
2022-10-06T10:09:17.792Z,31.10
2022-10-06T10:12:38.600Z,31.39
2022-10-06T10:15:23.990Z,31.39
2022-10-06T10:17:53.161Z,30.92
2022-10-06T10:20:24.531Z,30.67
2022-10-06T10:22:55.300Z,28.21
2022-10-06T10:25:40.740Z,28.77
2022-10-06T10:28:17.479Z,28.62
2022-10-06T10:31:04.134Z,28.42
2022-10-06T10:33:59.391Z,28.92
2022-10-06T10:36:44.228Z,29.58
2022-10-06T10:39:19.720Z,27.61
2022-10-06T10:41:53.040Z,27.56
2022-10-06T10:44:29.642Z,28.29
2022-10-06T10:47:03.345Z,27.48
2022-10-06T10:49:30.591Z,25.95
2022-10-06T10:52:02.368Z,27.06
2022-10-06T10:54:29.025Z,28.48
2022-10-06T10:56:55.900Z,28.22
2022-10-06T10:59:22.630Z,28.67
2022-10-06T11:01:58.638Z,28.47
2022-10-06T11:04:25.406Z,28.87
2022-10-06T11:07:11.382Z,29.56
2022-10-06T11:09:43.814Z,29.74
2022-10-06T11:12:24.259Z,28.38
2022-10-06T11:15:01.929Z,29.54
2022-10-06T11:17:31.060Z,29.29
2022-10-06T11:19:57.769Z,30.10
2022-10-06T11:22:35.787Z,29.41
2022-10-06T11:25:16.006Z,30.11
2022-10-06T11:27:59.568Z,29.91
2022-10-06T11:30:27.023Z,30.02
2022-10-06T11:33:04.869Z,30.32
2022-10-06T11:35:36.527Z,30.38
2022-10-06T11:38:16.101Z,29.22
2022-10-06T11:40:45.872Z,29.42
2022-10-06T11:43:12.773Z,29.90
2022-10-06T11:45:45.815Z,30.61
2022-10-06T11:48:26.971Z,30.63
2022-10-06T11:50:55.845Z,30.11
2022-10-06T11:53:42.748Z,30.07
2022-10-06T11:56:18.514Z,30.32
2022-10-06T11:58:51.290Z,30.18
2022-10-06T12:01:44.595Z,29.33
2022-10-06T12:04:11.283Z,29.18
2022-10-06T12:06:44.084Z,30.24
2022-10-06T12:09:22.867Z,30.39
2022-10-06T12:11:51.230Z,30.64
2022-10-06T12:17:19.662Z,30.36
2022-10-06T12:19:46.659Z,29.56
2022-10-06T12:22:17.506Z,29.60
2022-10-06T12:24:51.626Z,29.42
2022-10-06T12:27:32.211Z,28.78
2022-10-06T12:30:04.940Z,29.44
2022-10-06T12:32:31.582Z,28.87
2022-10-06T12:34:59.047Z,29.40
2022-10-06T12:37:28.912Z,28.79
2022-10-06T12:40:14.240Z,28.02
2022-10-06T12:42:40.950Z,27.27
2022-10-06T12:45:17.515Z,27.99
2022-10-06T12:47:45.393Z,27.88
2022-10-06T12:50:23.290Z,28.62
2022-10-06T12:52:54.795Z,27.60
2022-10-06T12:55:28.801Z,28.17
2022-10-06T12:57:56.120Z,28.72
2022-10-06T13:00:32.212Z,28.47
2022-10-06T13:03:01.263Z,27.42
2022-10-06T13:05:28.509Z,27.87
2022-10-06T13:07:59.549Z,28.34
2022-10-06T13:10:26.606Z,28.75
2022-10-06T13:12:53.301Z,28.85
2022-10-06T13:15:22.536Z,28.98
2022-10-06T13:17:49.320Z,28.87
2022-10-06T13:20:21.063Z,27.99
2022-10-06T13:22:55.151Z,29.02
2022-10-06T13:25:21.841Z,27.48
2022-10-06T13:27:49.061Z,28.13
2022-10-06T13:30:20.341Z,26.73
2022-10-06T13:32:51.814Z,26.98
2022-10-06T13:35:20.245Z,26.27
2022-10-06T13:37:47.120Z,26.53
2022-10-06T13:40:22.083Z,26.44
2022-10-06T13:43:02.038Z,26.68
2022-10-06T13:45:28.982Z,26.05
2022-10-06T13:48:07.944Z,25.88
2022-10-06T13:50:35.031Z,26.09
2022-10-06T13:53:02.173Z,25.86
2022-10-06T13:55:29.622Z,26.10
2022-10-06T13:57:56.341Z,26.50
2022-10-06T14:00:24.338Z,25.98
2022-10-06T14:02:55.415Z,26.21
2022-10-06T14:05:27.103Z,25.62
2022-10-06T14:08:01.828Z,26.11
2022-10-06T14:10:29.311Z,25.99
2022-10-06T14:12:56.041Z,25.55
2022-10-06T14:15:24.771Z,25.20
2022-10-06T14:17:59.271Z,25.70
2022-10-06T14:20:43.781Z,25.39
2022-10-06T14:23:29.200Z,25.25
2022-10-06T14:25:56.260Z,25.07
2022-10-06T14:28:23.025Z,25.41
2022-10-06T14:30:49.822Z,25.56
2022-10-06T14:33:17.330Z,24.33
2022-10-06T14:35:44.423Z,24.29
2022-10-06T14:38:11.131Z,24.57
2022-10-06T14:40:41.390Z,24.76
2022-10-06T14:43:08.100Z,24.22
2022-10-06T14:45:36.519Z,24.88
2022-10-06T14:48:04.790Z,24.81
2022-10-06T14:50:34.424Z,25.50
2022-10-06T14:53:01.138Z,25.48
2022-10-06T14:55:31.200Z,24.88
2022-10-06T14:57:58.542Z,25.42
2022-10-06T15:00:26.563Z,25.59
2022-10-06T15:02:53.562Z,25.54
2022-10-06T15:05:20.181Z,25.56
2022-10-06T15:08:05.337Z,25.19
2022-10-06T15:10:32.031Z,24.41
2022-10-06T15:12:58.693Z,25.53
2022-10-06T15:15:25.579Z,25.56
2022-10-06T15:17:52.973Z,25.68
2022-10-06T15:20:19.938Z,25.77
2022-10-06T15:22:46.711Z,26.01
2022-10-06T15:25:31.912Z,25.84
2022-10-06T15:28:18.681Z,25.68
2022-10-06T15:30:48.025Z,25.68
2022-10-06T15:33:14.853Z,25.90
2022-10-06T15:35:44.412Z,25.86
2022-10-06T15:38:11.050Z,25.81
2022-10-06T15:40:37.629Z,26.17
2022-10-06T15:43:04.496Z,26.09
2022-10-06T15:45:31.092Z,26.01
2022-10-06T15:47:57.695Z,25.81
2022-10-06T15:50:24.372Z,25.96
2022-10-06T15:52:51.011Z,26.01
2022-10-06T15:55:17.743Z,26.00
2022-10-06T15:57:44.451Z,25.85
2022-10-06T16:00:11.542Z,25.71
2022-10-06T16:02:38.243Z,25.86
2022-10-06T16:05:05.095Z,25.68
2022-10-06T16:07:32.854Z,25.77
2022-10-06T16:09:59.832Z,25.68
2022-10-06T16:12:28.691Z,25.79
2022-10-06T16:14:55.376Z,25.59
2022-10-06T16:17:22.020Z,25.58
2022-10-06T16:19:48.912Z,25.33
2022-10-06T16:22:17.649Z,25.40
2022-10-06T16:24:44.552Z,25.40
2022-10-06T16:27:13.016Z,25.21
2022-10-06T16:29:39.973Z,25.07
2022-10-06T16:32:06.648Z,24.68
2022-10-06T16:34:33.511Z,24.77
2022-10-06T16:37:00.271Z,24.65
2022-10-06T16:39:27.035Z,24.66
2022-10-06T16:41:54.898Z,24.66
2022-10-06T16:44:21.658Z,24.51
2022-10-06T16:46:48.403Z,24.61
2022-10-06T16:49:15.838Z,24.34
2022-10-06T16:51:43.938Z,24.44
2022-10-06T16:54:11.910Z,24.36
2022-10-06T16:56:38.951Z,24.13
2022-10-06T16:59:10.871Z,23.71
2022-10-06T17:01:38.142Z,23.95
2022-10-06T17:04:07.094Z,24.01
2022-10-06T17:06:34.896Z,23.87
2022-10-06T17:09:01.880Z,23.72
2022-10-06T17:11:28.699Z,23.72
2022-10-06T17:13:56.372Z,23.72
2022-10-06T17:16:25.155Z,23.69
2022-10-06T17:18:53.001Z,23.61
2022-10-06T17:21:43.141Z,23.52
2022-10-06T17:24:07.159Z,23.52
2022-10-06T17:26:38.470Z,23.24
2022-10-06T17:29:06.497Z,23.08
2022-10-06T17:31:35.923Z,23.22
2022-10-06T17:34:04.181Z,22.88
2022-10-06T17:36:30.823Z,22.95
2022-10-06T17:38:58.861Z,22.92
2022-10-06T17:41:32.933Z,22.97
2022-10-06T17:44:04.368Z,22.90
2022-10-06T17:46:32.989Z,22.59
2022-10-06T17:49:03.216Z,22.50
2022-10-06T17:51:30.040Z,22.54
2022-10-06T17:53:57.670Z,22.02
2022-10-06T17:56:25.571Z,21.94
2022-10-06T17:58:56.747Z,22.12
2022-10-06T18:01:26.036Z,21.99
2022-10-06T18:03:55.529Z,22.08
2022-10-06T18:06:23.736Z,22.22
2022-10-06T18:08:50.496Z,22.27
2022-10-06T18:11:34.016Z,22.00
2022-10-06T18:14:01.450Z,22.00
2022-10-06T18:16:31.308Z,22.13
2022-10-06T18:19:01.776Z,21.86
2022-10-06T18:21:29.033Z,21.86
2022-10-06T18:23:55.712Z,21.84
2022-10-06T18:26:22.554Z,21.49
2022-10-06T18:28:50.114Z,21.71
2022-10-06T18:31:19.243Z,21.36
2022-10-06T18:36:33.874Z,21.51
2022-10-06T18:39:01.589Z,21.59
2022-10-06T18:41:31.461Z,21.60
2022-10-06T18:43:59.049Z,21.18
2022-10-06T18:46:45.100Z,21.37
2022-10-06T18:49:13.384Z,21.38
2022-10-06T18:51:41.181Z,21.29
2022-10-06T18:54:09.696Z,21.32
2022-10-06T18:56:37.410Z,21.12
2022-10-06T18:59:14.851Z,21.09
2022-10-06T19:01:43.211Z,21.40
2022-10-06T19:04:11.039Z,21.07
2022-10-06T19:06:38.890Z,21.02
2022-10-06T19:09:06.450Z,21.00
2022-10-06T19:11:50.312Z,20.86
2022-10-06T19:14:19.859Z,20.91
2022-10-06T19:16:47.788Z,20.78
2022-10-06T19:19:16.631Z,20.87
2022-10-06T19:21:45.195Z,20.84
2022-10-06T19:24:13.490Z,20.77
2022-10-06T19:26:45.685Z,20.59
2022-10-06T19:29:13.950Z,20.51
2022-10-06T19:31:42.150Z,20.47
2022-10-06T19:34:11.251Z,20.43
2022-10-06T19:36:38.897Z,20.26
2022-10-06T19:39:07.110Z,20.07
2022-10-06T19:41:52.450Z,20.22
2022-10-06T19:44:19.173Z,20.19
2022-10-06T19:46:45.952Z,20.37
2022-10-06T19:49:12.701Z,20.02
2022-10-06T19:51:41.580Z,19.42
2022-10-06T19:54:12.390Z,19.66
2022-10-06T19:56:41.511Z,19.52
2022-10-06T19:59:12.261Z,19.48
2022-10-06T20:01:39.281Z,19.36
2022-10-06T20:04:06.288Z,19.36
2022-10-06T20:06:35.385Z,19.39
2022-10-06T20:09:07.173Z,19.32
2022-10-06T20:11:36.569Z,19.32
2022-10-06T20:14:10.681Z,19.25
2022-10-06T20:16:40.142Z,19.39
2022-10-06T20:19:07.470Z,19.24
2022-10-06T20:21:35.622Z,19.35
2022-10-06T20:24:03.910Z,19.29
2022-10-06T20:26:32.232Z,19.24
2022-10-06T20:29:00.049Z,18.72
2022-10-06T20:33:58.489Z,18.13
2022-10-06T20:36:26.204Z,17.91
2022-10-06T20:39:11.479Z,17.89
2022-10-06T20:41:38.646Z,17.93
2022-10-06T20:44:05.673Z,18.25
2022-10-06T20:46:33.339Z,18.33
2022-10-06T20:49:10.690Z,17.77
2022-10-06T20:51:38.968Z,18.06
2022-10-06T20:54:06.150Z,18.19
2022-10-06T20:56:34.940Z,18.21
2022-10-06T20:59:07.890Z,18.20
2022-10-06T21:01:35.993Z,18.20
2022-10-06T21:04:02.918Z,18.23
2022-10-06T21:06:29.737Z,18.28
2022-10-06T21:08:56.663Z,18.26
2022-10-06T21:11:24.515Z,18.49
2022-10-06T21:13:54.665Z,18.33
2022-10-06T21:16:22.927Z,18.37
2022-10-06T21:18:49.976Z,18.38
2022-10-06T21:21:16.758Z,17.87
2022-10-06T21:23:44.919Z,17.99
2022-10-06T21:26:13.664Z,18.12
2022-10-06T21:28:40.822Z,18.04
2022-10-06T21:31:08.990Z,18.01
2022-10-06T21:33:41.622Z,18.15
2022-10-06T21:36:15.626Z,18.23
2022-10-06T21:38:42.347Z,18.28
2022-10-06T21:41:27.635Z,18.13
2022-10-06T21:44:01.238Z,18.23
2022-10-06T21:46:32.663Z,17.64
2022-10-06T21:49:00.014Z,17.84
2022-10-06T21:51:30.934Z,17.85
2022-10-06T21:53:58.828Z,17.87
2022-10-06T21:56:27.096Z,18.06
2022-10-06T21:58:55.990Z,18.07
2022-10-06T22:01:24.342Z,17.93
2022-10-06T22:03:51.227Z,17.92
2022-10-06T22:06:19.756Z,17.82
2022-10-06T22:08:46.742Z,18.07
2022-10-06T22:11:15.299Z,17.75
2022-10-06T22:13:43.265Z,17.80
2022-10-06T22:16:11.163Z,17.81
2022-10-06T22:18:38.717Z,17.77
2022-10-06T22:21:13.055Z,17.73
2022-10-06T22:23:40.386Z,17.61
2022-10-06T22:26:07.655Z,17.71
2022-10-06T22:28:34.573Z,17.64
2022-10-06T22:31:02.297Z,17.69
2022-10-06T22:33:29.586Z,17.15
2022-10-06T22:35:56.254Z,16.34
2022-10-06T22:38:22.983Z,15.49
2022-10-06T22:40:49.625Z,15.78
2022-10-06T22:43:16.337Z,16.37
2022-10-06T22:45:43.014Z,16.28
2022-10-06T22:48:09.701Z,16.45
2022-10-06T22:50:36.385Z,16.34
2022-10-06T22:53:03.024Z,16.42
2022-10-06T22:55:29.676Z,16.35
2022-10-06T22:57:56.346Z,16.43
2022-10-06T23:00:23.066Z,16.53
2022-10-06T23:02:49.745Z,16.54
2022-10-06T23:05:16.422Z,16.60
2022-10-06T23:07:43.478Z,16.63
2022-10-06T23:10:10.254Z,16.81
2022-10-06T23:12:36.986Z,16.84
2022-10-06T23:15:03.774Z,16.88
2022-10-06T23:17:30.386Z,16.76
2022-10-06T23:19:57.060Z,16.91
2022-10-06T23:24:50.436Z,16.74
2022-10-06T23:27:17.133Z,16.74
2022-10-06T23:29:43.838Z,16.77
2022-10-06T23:32:10.467Z,16.92
2022-10-06T23:34:37.214Z,16.89
2022-10-06T23:37:03.955Z,16.96
2022-10-06T23:39:30.575Z,16.92
2022-10-06T23:41:57.305Z,16.89
2022-10-06T23:44:23.944Z,16.79
2022-10-06T23:46:50.822Z,16.50
2022-10-06T23:49:17.465Z,16.28
2022-10-06T23:51:44.102Z,16.53
2022-10-06T23:54:11.015Z,16.55
2022-10-06T23:56:37.667Z,16.45
2022-10-06T23:59:04.737Z,16.51
